EZY87TR BIAR-EGCC
Flight info
| Callsign | EZY87TR |
|---|---|
| Flight time | N/A |
| Altitude | 35000 |
| Route | JARRI1D JARRI DCT MATIK/N0448F350 DCT BESGA DCT ORSUM DCT GOW DCT FENIK DCT LUSIV DCT ELBUS DCT NAVSO DCT DCS DCT ASCOM/N0413F250 L612 LAKEY |
| Aircraft | A320/M-SDE3FGHIRWY/LB1 |
Departure
| Time | 2026-04-21 01:11 |
|---|---|
| Airport | Akureyri International Airport (BIAR) |
Arrival
| Time | N/A |
|---|---|
| Airport | Manchester Airport (EGCC) |
| Time | Latitude | Longitude | Altitude | Speed | Heading |
|---|---|---|---|---|---|
| 2026-04-21 00:59 | 65.65482 | -18.07487 | 18 ft | 0 kts | 12° |
| 2026-04-21 01:07 | 65.65482 | -18.07486 | 136 ft | 1 kts | 18° |
| 2026-04-21 01:08 | 65.65484 | -18.07369 | 17 ft | 14 kts | 90° |
| 2026-04-21 01:08 | 65.65526 | -18.07159 | 17 ft | 9 kts | 354° |
| 2026-04-21 01:08 | 65.65588 | -18.07188 | 18 ft | 20 kts | 352° |
| 2026-04-21 01:08 | 65.65806 | -18.07232 | 18 ft | 42 kts | 356° |
| 2026-04-21 01:09 | 65.66109 | -18.07288 | 15 ft | 43 kts | 355° |
| 2026-04-21 01:09 | 65.66404 | -18.07343 | 18 ft | 41 kts | 355° |
| 2026-04-21 01:09 | 65.66660 | -18.07396 | 18 ft | 33 kts | 355° |
| 2026-04-21 01:09 | 65.66818 | -18.07475 | 19 ft | 15 kts | 357° |
| 2026-04-21 01:10 | 65.66831 | -18.07428 | 17 ft | 3 kts | 147° |
| 2026-04-21 01:10 | 65.66702 | -18.07397 | 21 ft | 52 kts | 175° |
| 2026-04-21 01:10 | 65.66064 | -18.07284 | 16 ft | 130 kts | 175° |
| 2026-04-21 01:10 | 65.64978 | -18.07079 | 230 ft | 171 kts | 174° |
| 2026-04-21 01:11 | 65.63751 | -18.06755 | 922 ft | 185 kts | 175° |
| 2026-04-21 01:11 | 65.62443 | -18.06468 | 1607 ft | 198 kts | 176° |
| 2026-04-21 01:11 | 65.61022 | -18.06353 | 2417 ft | 212 kts | 186° |
| 2026-04-21 01:11 | 65.59605 | -18.07053 | 3544 ft | 208 kts | 199° |
| 2026-04-21 01:12 | 65.58189 | -18.08274 | 4336 ft | 227 kts | 201° |
| 2026-04-21 01:12 | 65.56659 | -18.09577 | 5291 ft | 237 kts | 201° |
| 2026-04-21 01:12 | 65.55081 | -18.10902 | 6373 ft | 243 kts | 201° |
| 2026-04-21 01:12 | 65.53463 | -18.12249 | 7463 ft | 249 kts | 201° |
| 2026-04-21 01:13 | 65.51810 | -18.13627 | 8514 ft | 254 kts | 201° |
| 2026-04-21 01:13 | 65.50121 | -18.15033 | 9582 ft | 259 kts | 200° |
| 2026-04-21 01:13 | 65.48380 | -18.16080 | 9824 ft | 271 kts | 187° |
| 2026-04-21 01:13 | 65.46670 | -18.15235 | 9775 ft | 254 kts | 146° |
| 2026-04-21 01:14 | 65.45645 | -18.12052 | 9598 ft | 240 kts | 103° |
| 2026-04-21 01:14 | 65.45706 | -18.08167 | 9018 ft | 245 kts | 63° |
| 2026-04-21 01:14 | 65.46956 | -18.05411 | 9246 ft | 245 kts | 18° |
| 2026-04-21 01:14 | 65.48619 | -18.04468 | 8314 ft | 255 kts | 7° |
| 2026-04-21 01:15 | 65.50520 | -18.03745 | 6107 ft | 294 kts | 6° |
| 2026-04-21 01:15 | 65.52613 | -18.03629 | 3927 ft | 305 kts | 347° |
| 2026-04-21 01:15 | 65.54575 | -18.04859 | 2824 ft | 280 kts | 343° |
| 2026-04-21 01:15 | 65.56431 | -18.05698 | 1709 ft | 262 kts | 357° |
| 2026-04-21 01:16 | 65.58126 | -18.05426 | 1257 ft | 224 kts | 5° |
| 2026-04-21 01:16 | 65.59549 | -18.05555 | 996 ft | 190 kts | 348° |
| 2026-04-21 01:16 | 65.60772 | -18.06199 | 704 ft | 175 kts | 347° |
| 2026-04-21 01:16 | 65.61935 | -18.06520 | 489 ft | 162 kts | 359° |
| 2026-04-21 01:17 | 65.63138 | -18.06700 | 359 ft | 178 kts | 355° |
| 2026-04-21 01:17 | 65.64311 | -18.06961 | 113 ft | 164 kts | 357° |
| 2026-04-21 01:17 | 65.65367 | -18.07158 | 19 ft | 135 kts | 356° |
| 2026-04-21 01:17 | 65.65886 | -18.07242 | 17 ft | 12 kts | 355° |
| 2026-04-21 01:18 | 65.65946 | -18.07271 | 16 ft | 3 kts | 57° |
| 2026-04-21 01:18 | 65.65933 | -18.07260 | 16 ft | 3 kts | 171° |
| 2026-04-21 01:18 | 65.65880 | -18.07257 | 18 ft | 9 kts | 179° |
| 2026-04-21 01:18 | 65.65819 | -18.07254 | 18 ft | 14 kts | 179° |
| 2026-04-21 01:19 | 65.65693 | -18.07224 | 20 ft | 19 kts | 172° |
| 2026-04-21 01:19 | 65.65558 | -18.07188 | 18 ft | 20 kts | 174° |
| 2026-04-21 01:19 | 65.65478 | -18.07255 | 16 ft | 4 kts | 265° |
| 2026-04-21 01:19 | 65.65467 | -18.07346 | 17 ft | 6 kts | 223° |
| 2026-04-21 01:20 | 65.65418 | -18.07369 | 17 ft | 11 kts | 180° |
| 2026-04-21 01:20 | 65.65389 | -18.07399 | 17 ft | 3 kts | 253° |
| 2026-04-21 01:20 | 65.65387 | -18.07436 | 17 ft | 3 kts | 265° |
| 2026-04-21 01:20 | 65.65398 | -18.07483 | 17 ft | 3 kts | 329° |
| 2026-04-21 01:21 | 65.65414 | -18.07482 | 17 ft | 2 kts | 7° |
| 2026-04-21 01:21 | 65.65418 | -18.07480 | 17 ft | 0 kts | 11° |
| 2026-04-21 01:21 | 65.65418 | -18.07483 | 17 ft | 0 kts | 25° |